sensor_id;sensor_type;location;lat;lon;timestamp;P1;durP1;ratioP1;P2;durP2;ratioP2
9072;SDS011;4572;41.642;25.370;2023-02-11T00:01:32;16.10;;;7.37;;
9072;SDS011;4572;41.642;25.370;2023-02-11T00:03:59;13.20;;;7.37;;
9072;SDS011;4572;41.642;25.370;2023-02-11T00:06:25;13.13;;;7.13;;
9072;SDS011;4572;41.642;25.370;2023-02-11T00:08:52;17.47;;;7.07;;
9072;SDS011;4572;41.642;25.370;2023-02-11T00:11:18;14.17;;;7.33;;
9072;SDS011;4572;41.642;25.370;2023-02-11T00:13:45;18.17;;;8.03;;
9072;SDS011;4572;41.642;25.370;2023-02-11T00:16:12;14.23;;;7.73;;
9072;SDS011;4572;41.642;25.370;2023-02-11T00:18:39;14.83;;;7.97;;
9072;SDS011;4572;41.642;25.370;2023-02-11T00:21:06;18.07;;;8.13;;
9072;SDS011;4572;41.642;25.370;2023-02-11T00:23:31;18.10;;;9.87;;
9072;SDS011;4572;41.642;25.370;2023-02-11T00:25:57;28.67;;;13.00;;
9072;SDS011;4572;41.642;25.370;2023-02-11T00:28:22;26.10;;;12.23;;
9072;SDS011;4572;41.642;25.370;2023-02-11T00:30:55;18.07;;;9.70;;
9072;SDS011;4572;41.642;25.370;2023-02-11T00:33:21;20.53;;;9.57;;
9072;SDS011;4572;41.642;25.370;2023-02-11T00:35:46;19.63;;;9.33;;
9072;SDS011;4572;41.642;25.370;2023-02-11T00:38:12;17.00;;;8.60;;
9072;SDS011;4572;41.642;25.370;2023-02-11T00:40:38;17.90;;;8.60;;
9072;SDS011;4572;41.642;25.370;2023-02-11T00:43:03;18.57;;;8.67;;
9072;SDS011;4572;41.642;25.370;2023-02-11T00:45:28;18.33;;;9.67;;
9072;SDS011;4572;41.642;25.370;2023-02-11T00:47:54;22.20;;;9.63;;
9072;SDS011;4572;41.642;25.370;2023-02-11T00:50:20;21.53;;;9.13;;
9072;SDS011;4572;41.642;25.370;2023-02-11T00:52:46;23.30;;;10.23;;
9072;SDS011;4572;41.642;25.370;2023-02-11T00:55:12;21.87;;;9.40;;
9072;SDS011;4572;41.642;25.370;2023-02-11T00:57:38;21.23;;;8.53;;
9072;SDS011;4572;41.642;25.370;2023-02-11T01:00:04;18.90;;;8.90;;
9072;SDS011;4572;41.642;25.370;2023-02-11T01:02:31;16.20;;;9.00;;
9072;SDS011;4572;41.642;25.370;2023-02-11T01:04:57;16.00;;;8.33;;
9072;SDS011;4572;41.642;25.370;2023-02-11T01:07:24;14.77;;;8.43;;
9072;SDS011;4572;41.642;25.370;2023-02-11T01:09:50;19.03;;;9.00;;
9072;SDS011;4572;41.642;25.370;2023-02-11T01:12:15;16.53;;;7.37;;
9072;SDS011;4572;41.642;25.370;2023-02-11T01:14:41;17.70;;;8.50;;
9072;SDS011;4572;41.642;25.370;2023-02-11T01:17:06;18.93;;;8.47;;
9072;SDS011;4572;41.642;25.370;2023-02-11T01:19:32;16.50;;;8.53;;
9072;SDS011;4572;41.642;25.370;2023-02-11T01:21:57;14.63;;;8.33;;
9072;SDS011;4572;41.642;25.370;2023-02-11T01:24:23;17.47;;;9.43;;
9072;SDS011;4572;41.642;25.370;2023-02-11T01:26:48;15.63;;;8.80;;
9072;SDS011;4572;41.642;25.370;2023-02-11T01:29:14;15.10;;;7.93;;
9072;SDS011;4572;41.642;25.370;2023-02-11T01:31:39;14.83;;;7.70;;
9072;SDS011;4572;41.642;25.370;2023-02-11T01:34:05;15.90;;;7.93;;
9072;SDS011;4572;41.642;25.370;2023-02-11T01:36:30;14.20;;;7.70;;
9072;SDS011;4572;41.642;25.370;2023-02-11T01:38:55;17.13;;;7.10;;
9072;SDS011;4572;41.642;25.370;2023-02-11T01:41:21;15.50;;;7.10;;
9072;SDS011;4572;41.642;25.370;2023-02-11T01:43:47;19.03;;;7.50;;
9072;SDS011;4572;41.642;25.370;2023-02-11T01:51:36;12.97;;;7.23;;
9072;SDS011;4572;41.642;25.370;2023-02-11T01:54:05;13.73;;;6.50;;
9072;SDS011;4572;41.642;25.370;2023-02-11T01:56:51;12.23;;;6.43;;
9072;SDS011;4572;41.642;25.370;2023-02-11T01:59:44;11.90;;;6.70;;
9072;SDS011;4572;41.642;25.370;2023-02-11T02:02:12;12.67;;;6.50;;
9072;SDS011;4572;41.642;25.370;2023-02-11T02:04:49;13.97;;;7.53;;
9072;SDS011;4572;41.642;25.370;2023-02-11T02:07:27;16.20;;;7.90;;
9072;SDS011;4572;41.642;25.370;2023-02-11T02:09:58;15.13;;;8.23;;
9072;SDS011;4572;41.642;25.370;2023-02-11T02:12:29;16.13;;;8.00;;
9072;SDS011;4572;41.642;25.370;2023-02-11T02:17:43;18.83;;;9.57;;
9072;SDS011;4572;41.642;25.370;2023-02-11T02:20:38;14.57;;;8.27;;
9072;SDS011;4572;41.642;25.370;2023-02-11T02:34:01;17.70;;;7.83;;
9072;SDS011;4572;41.642;25.370;2023-02-11T02:36:40;18.63;;;8.53;;
9072;SDS011;4572;41.642;25.370;2023-02-11T02:39:17;19.90;;;8.83;;
9072;SDS011;4572;41.642;25.370;2023-02-11T02:41:53;15.97;;;8.27;;
9072;SDS011;4572;41.642;25.370;2023-02-11T02:44:20;16.67;;;7.97;;
9072;SDS011;4572;41.642;25.370;2023-02-11T02:46:46;14.33;;;7.37;;
9072;SDS011;4572;41.642;25.370;2023-02-11T02:49:12;13.53;;;7.23;;
9072;SDS011;4572;41.642;25.370;2023-02-11T03:03:14;15.10;;;6.93;;
9072;SDS011;4572;41.642;25.370;2023-02-11T03:05:46;12.93;;;7.30;;
9072;SDS011;4572;41.642;25.370;2023-02-11T03:11:14;14.00;;;6.87;;
9072;SDS011;4572;41.642;25.370;2023-02-11T03:13:41;12.60;;;6.83;;
9072;SDS011;4572;41.642;25.370;2023-02-11T03:16:10;16.50;;;6.73;;
9072;SDS011;4572;41.642;25.370;2023-02-11T03:18:38;16.60;;;8.03;;
9072;SDS011;4572;41.642;25.370;2023-02-11T03:21:07;13.40;;;6.90;;
9072;SDS011;4572;41.642;25.370;2023-02-11T03:23:38;13.27;;;6.70;;
9072;SDS011;4572;41.642;25.370;2023-02-11T03:26:11;14.07;;;7.20;;
9072;SDS011;4572;41.642;25.370;2023-02-11T03:28:42;12.30;;;6.60;;
9072;SDS011;4572;41.642;25.370;2023-02-11T03:33:59;11.57;;;5.90;;
9072;SDS011;4572;41.642;25.370;2023-02-11T03:36:44;12.50;;;8.00;;
9072;SDS011;4572;41.642;25.370;2023-02-11T03:39:18;14.87;;;7.33;;
9072;SDS011;4572;41.642;25.370;2023-02-11T03:41:46;13.80;;;7.00;;
9072;SDS011;4572;41.642;25.370;2023-02-11T03:44:13;10.67;;;7.10;;
9072;SDS011;4572;41.642;25.370;2023-02-11T03:46:39;17.83;;;7.83;;
9072;SDS011;4572;41.642;25.370;2023-02-11T03:49:09;15.17;;;7.80;;
9072;SDS011;4572;41.642;25.370;2023-02-11T03:51:37;12.43;;;7.90;;
9072;SDS011;4572;41.642;25.370;2023-02-11T03:54:04;15.57;;;8.13;;
9072;SDS011;4572;41.642;25.370;2023-02-11T03:56:37;16.27;;;8.40;;
9072;SDS011;4572;41.642;25.370;2023-02-11T03:59:06;13.73;;;8.07;;
9072;SDS011;4572;41.642;25.370;2023-02-11T04:01:32;15.20;;;8.33;;
9072;SDS011;4572;41.642;25.370;2023-02-11T04:03:57;14.80;;;8.70;;
9072;SDS011;4572;41.642;25.370;2023-02-11T04:06:23;15.97;;;8.63;;
9072;SDS011;4572;41.642;25.370;2023-02-11T04:08:48;18.60;;;8.53;;
9072;SDS011;4572;41.642;25.370;2023-02-11T04:11:14;18.43;;;9.03;;
9072;SDS011;4572;41.642;25.370;2023-02-11T04:13:39;15.03;;;8.20;;
9072;SDS011;4572;41.642;25.370;2023-02-11T04:16:05;16.23;;;8.97;;
9072;SDS011;4572;41.642;25.370;2023-02-11T04:18:30;15.00;;;8.93;;
9072;SDS011;4572;41.642;25.370;2023-02-11T04:20:56;21.47;;;9.67;;
9072;SDS011;4572;41.642;25.370;2023-02-11T04:23:21;20.60;;;9.13;;
9072;SDS011;4572;41.642;25.370;2023-02-11T04:25:47;16.50;;;9.43;;
9072;SDS011;4572;41.642;25.370;2023-02-11T04:28:15;17.37;;;8.50;;
9072;SDS011;4572;41.642;25.370;2023-02-11T04:30:40;19.50;;;9.27;;
9072;SDS011;4572;41.642;25.370;2023-02-11T04:33:05;17.67;;;8.80;;
9072;SDS011;4572;41.642;25.370;2023-02-11T04:35:31;17.07;;;8.90;;
9072;SDS011;4572;41.642;25.370;2023-02-11T04:37:56;15.63;;;8.23;;
9072;SDS011;4572;41.642;25.370;2023-02-11T04:40:22;17.13;;;10.00;;
9072;SDS011;4572;41.642;25.370;2023-02-11T04:42:47;17.90;;;9.07;;
9072;SDS011;4572;41.642;25.370;2023-02-11T04:45:13;18.67;;;8.93;;
9072;SDS011;4572;41.642;25.370;2023-02-11T04:47:38;20.30;;;9.07;;
9072;SDS011;4572;41.642;25.370;2023-02-11T04:50:04;17.53;;;9.37;;
9072;SDS011;4572;41.642;25.370;2023-02-11T04:52:30;20.03;;;10.20;;
9072;SDS011;4572;41.642;25.370;2023-02-11T04:54:55;19.73;;;10.40;;
9072;SDS011;4572;41.642;25.370;2023-02-11T04:57:21;17.87;;;9.53;;
9072;SDS011;4572;41.642;25.370;2023-02-11T04:59:46;16.93;;;10.20;;
9072;SDS011;4572;41.642;25.370;2023-02-11T05:02:12;18.10;;;8.90;;
9072;SDS011;4572;41.642;25.370;2023-02-11T05:04:38;17.30;;;8.90;;
9072;SDS011;4572;41.642;25.370;2023-02-11T05:07:03;21.93;;;11.03;;
9072;SDS011;4572;41.642;25.370;2023-02-11T05:09:29;17.63;;;9.97;;
9072;SDS011;4572;41.642;25.370;2023-02-11T05:11:54;21.53;;;10.53;;
9072;SDS011;4572;41.642;25.370;2023-02-11T05:14:20;22.47;;;9.33;;
9072;SDS011;4572;41.642;25.370;2023-02-11T05:16:45;15.63;;;9.37;;
9072;SDS011;4572;41.642;25.370;2023-02-11T05:19:11;24.50;;;10.10;;
9072;SDS011;4572;41.642;25.370;2023-02-11T05:21:36;20.80;;;9.83;;
9072;SDS011;4572;41.642;25.370;2023-02-11T05:24:02;13.47;;;8.93;;
9072;SDS011;4572;41.642;25.370;2023-02-11T05:26:28;17.37;;;9.53;;
9072;SDS011;4572;41.642;25.370;2023-02-11T05:28:53;17.43;;;9.60;;
9072;SDS011;4572;41.642;25.370;2023-02-11T05:31:18;23.40;;;9.53;;
9072;SDS011;4572;41.642;25.370;2023-02-11T05:33:44;18.53;;;8.93;;
9072;SDS011;4572;41.642;25.370;2023-02-11T05:36:10;15.47;;;8.77;;
9072;SDS011;4572;41.642;25.370;2023-02-11T05:38:37;17.17;;;10.30;;
9072;SDS011;4572;41.642;25.370;2023-02-11T05:41:03;18.10;;;10.37;;
9072;SDS011;4572;41.642;25.370;2023-02-11T05:43:31;19.70;;;10.57;;
9072;SDS011;4572;41.642;25.370;2023-02-11T05:45:58;21.67;;;10.10;;
9072;SDS011;4572;41.642;25.370;2023-02-11T05:48:24;22.57;;;10.33;;
9072;SDS011;4572;41.642;25.370;2023-02-11T05:50:49;25.83;;;12.97;;
9072;SDS011;4572;41.642;25.370;2023-02-11T05:53:15;24.27;;;11.73;;
9072;SDS011;4572;41.642;25.370;2023-02-11T05:55:40;23.57;;;11.10;;
9072;SDS011;4572;41.642;25.370;2023-02-11T05:58:06;23.07;;;12.83;;
9072;SDS011;4572;41.642;25.370;2023-02-11T06:00:32;23.17;;;12.50;;
9072;SDS011;4572;41.642;25.370;2023-02-11T06:02:58;22.67;;;12.33;;
9072;SDS011;4572;41.642;25.370;2023-02-11T06:05:23;25.90;;;11.87;;
9072;SDS011;4572;41.642;25.370;2023-02-11T06:07:48;25.37;;;11.80;;
9072;SDS011;4572;41.642;25.370;2023-02-11T06:10:14;20.50;;;11.90;;
9072;SDS011;4572;41.642;25.370;2023-02-11T06:12:40;21.80;;;13.30;;
9072;SDS011;4572;41.642;25.370;2023-02-11T06:15:05;26.43;;;12.93;;
9072;SDS011;4572;41.642;25.370;2023-02-11T06:17:31;23.90;;;13.30;;
9072;SDS011;4572;41.642;25.370;2023-02-11T06:20:00;22.60;;;10.63;;
9072;SDS011;4572;41.642;25.370;2023-02-11T06:22:28;22.43;;;10.50;;
9072;SDS011;4572;41.642;25.370;2023-02-11T06:24:53;19.87;;;10.83;;
9072;SDS011;4572;41.642;25.370;2023-02-11T06:27:19;22.97;;;11.17;;
9072;SDS011;4572;41.642;25.370;2023-02-11T06:29:44;20.50;;;12.27;;
9072;SDS011;4572;41.642;25.370;2023-02-11T06:32:10;32.93;;;12.53;;
9072;SDS011;4572;41.642;25.370;2023-02-11T06:34:37;22.23;;;12.27;;
9072;SDS011;4572;41.642;25.370;2023-02-11T06:37:03;24.67;;;13.30;;
9072;SDS011;4572;41.642;25.370;2023-02-11T06:39:28;31.37;;;15.83;;
9072;SDS011;4572;41.642;25.370;2023-02-11T06:41:54;29.83;;;14.30;;
9072;SDS011;4572;41.642;25.370;2023-02-11T06:44:20;26.07;;;12.90;;
9072;SDS011;4572;41.642;25.370;2023-02-11T06:46:45;27.03;;;12.77;;
9072;SDS011;4572;41.642;25.370;2023-02-11T06:49:11;27.57;;;14.23;;
9072;SDS011;4572;41.642;25.370;2023-02-11T06:51:36;19.63;;;10.87;;
9072;SDS011;4572;41.642;25.370;2023-02-11T06:54:03;22.50;;;12.63;;
9072;SDS011;4572;41.642;25.370;2023-02-11T06:56:29;32.33;;;13.27;;
9072;SDS011;4572;41.642;25.370;2023-02-11T06:58:55;22.83;;;11.07;;
9072;SDS011;4572;41.642;25.370;2023-02-11T07:01:22;27.43;;;12.77;;
9072;SDS011;4572;41.642;25.370;2023-02-11T07:03:48;23.80;;;13.67;;
9072;SDS011;4572;41.642;25.370;2023-02-11T07:06:17;22.37;;;13.27;;
9072;SDS011;4572;41.642;25.370;2023-02-11T07:08:44;31.27;;;14.97;;
9072;SDS011;4572;41.642;25.370;2023-02-11T07:11:14;25.70;;;14.20;;
9072;SDS011;4572;41.642;25.370;2023-02-11T07:13:42;27.37;;;14.97;;
9072;SDS011;4572;41.642;25.370;2023-02-11T07:16:08;34.63;;;15.90;;
9072;SDS011;4572;41.642;25.370;2023-02-11T07:18:35;21.20;;;13.27;;
9072;SDS011;4572;41.642;25.370;2023-02-11T07:21:04;28.33;;;14.40;;
9072;SDS011;4572;41.642;25.370;2023-02-11T07:23:31;22.80;;;13.07;;
9072;SDS011;4572;41.642;25.370;2023-02-11T07:25:57;26.23;;;13.43;;
9072;SDS011;4572;41.642;25.370;2023-02-11T07:28:27;23.03;;;11.20;;
9072;SDS011;4572;41.642;25.370;2023-02-11T07:30:52;22.97;;;12.17;;
9072;SDS011;4572;41.642;25.370;2023-02-11T07:33:18;26.03;;;12.97;;
9072;SDS011;4572;41.642;25.370;2023-02-11T07:35:43;22.93;;;13.03;;
9072;SDS011;4572;41.642;25.370;2023-02-11T07:38:09;21.80;;;12.83;;
9072;SDS011;4572;41.642;25.370;2023-02-11T07:40:35;26.10;;;13.87;;
9072;SDS011;4572;41.642;25.370;2023-02-11T07:43:00;24.73;;;13.47;;
9072;SDS011;4572;41.642;25.370;2023-02-11T07:45:27;26.40;;;13.83;;
9072;SDS011;4572;41.642;25.370;2023-02-11T07:47:52;30.43;;;14.33;;
9072;SDS011;4572;41.642;25.370;2023-02-11T07:50:18;22.70;;;12.90;;
9072;SDS011;4572;41.642;25.370;2023-02-11T07:52:43;25.73;;;14.23;;
9072;SDS011;4572;41.642;25.370;2023-02-11T07:55:09;25.47;;;13.20;;
9072;SDS011;4572;41.642;25.370;2023-02-11T07:57:35;25.50;;;14.20;;
9072;SDS011;4572;41.642;25.370;2023-02-11T08:00:02;23.03;;;13.37;;
9072;SDS011;4572;41.642;25.370;2023-02-11T08:02:28;26.50;;;12.97;;
9072;SDS011;4572;41.642;25.370;2023-02-11T08:04:53;27.20;;;13.97;;
9072;SDS011;4572;41.642;25.370;2023-02-11T08:07:19;24.60;;;13.77;;
9072;SDS011;4572;41.642;25.370;2023-02-11T08:09:44;24.07;;;13.33;;
9072;SDS011;4572;41.642;25.370;2023-02-11T08:12:10;23.17;;;13.87;;
9072;SDS011;4572;41.642;25.370;2023-02-11T08:14:35;29.63;;;14.67;;
9072;SDS011;4572;41.642;25.370;2023-02-11T08:17:01;21.73;;;13.03;;
9072;SDS011;4572;41.642;25.370;2023-02-11T08:19:27;29.80;;;13.40;;
9072;SDS011;4572;41.642;25.370;2023-02-11T08:21:56;27.73;;;13.60;;
9072;SDS011;4572;41.642;25.370;2023-02-11T08:24:22;26.53;;;13.30;;
9072;SDS011;4572;41.642;25.370;2023-02-11T08:26:48;27.00;;;14.13;;
9072;SDS011;4572;41.642;25.370;2023-02-11T08:29:14;23.80;;;13.80;;
9072;SDS011;4572;41.642;25.370;2023-02-11T08:31:41;22.53;;;13.90;;
9072;SDS011;4572;41.642;25.370;2023-02-11T08:34:08;31.97;;;13.20;;
9072;SDS011;4572;41.642;25.370;2023-02-11T08:36:36;23.50;;;14.40;;
9072;SDS011;4572;41.642;25.370;2023-02-11T08:39:03;22.63;;;13.07;;
9072;SDS011;4572;41.642;25.370;2023-02-11T08:41:32;27.83;;;13.70;;
9072;SDS011;4572;41.642;25.370;2023-02-11T08:43:58;29.17;;;13.07;;
9072;SDS011;4572;41.642;25.370;2023-02-11T08:46:24;24.40;;;13.90;;
9072;SDS011;4572;41.642;25.370;2023-02-11T08:48:49;22.23;;;12.53;;
9072;SDS011;4572;41.642;25.370;2023-02-11T08:51:23;25.80;;;14.10;;
9072;SDS011;4572;41.642;25.370;2023-02-11T08:53:51;24.10;;;13.33;;
9072;SDS011;4572;41.642;25.370;2023-02-11T08:56:18;20.13;;;12.53;;
9072;SDS011;4572;41.642;25.370;2023-02-11T08:58:44;26.17;;;13.73;;
9072;SDS011;4572;41.642;25.370;2023-02-11T09:01:18;27.60;;;14.37;;
9072;SDS011;4572;41.642;25.370;2023-02-11T09:03:48;22.73;;;13.90;;
9072;SDS011;4572;41.642;25.370;2023-02-11T09:06:13;18.73;;;12.37;;
9072;SDS011;4572;41.642;25.370;2023-02-11T09:08:42;24.03;;;12.67;;
9072;SDS011;4572;41.642;25.370;2023-02-11T09:11:09;22.73;;;13.33;;
9072;SDS011;4572;41.642;25.370;2023-02-11T09:13:34;26.17;;;13.43;;
9072;SDS011;4572;41.642;25.370;2023-02-11T09:16:01;24.20;;;14.07;;
9072;SDS011;4572;41.642;25.370;2023-02-11T09:18:27;27.33;;;14.83;;
9072;SDS011;4572;41.642;25.370;2023-02-11T09:21:00;20.33;;;12.27;;
9072;SDS011;4572;41.642;25.370;2023-02-11T09:23:29;18.00;;;10.90;;
9072;SDS011;4572;41.642;25.370;2023-02-11T09:25:55;20.57;;;10.37;;
9072;SDS011;4572;41.642;25.370;2023-02-11T09:28:20;16.97;;;10.57;;
9072;SDS011;4572;41.642;25.370;2023-02-11T09:30:46;19.17;;;11.20;;
9072;SDS011;4572;41.642;25.370;2023-02-11T09:33:11;18.27;;;9.77;;
9072;SDS011;4572;41.642;25.370;2023-02-11T09:35:37;17.57;;;10.23;;
9072;SDS011;4572;41.642;25.370;2023-02-11T09:38:02;15.67;;;9.23;;
9072;SDS011;4572;41.642;25.370;2023-02-11T09:40:28;21.67;;;9.30;;
9072;SDS011;4572;41.642;25.370;2023-02-11T09:43:02;20.00;;;7.83;;
9072;SDS011;4572;41.642;25.370;2023-02-11T09:45:29;25.17;;;8.53;;
9072;SDS011;4572;41.642;25.370;2023-02-11T09:52:57;25.97;;;9.00;;
9072;SDS011;4572;41.642;25.370;2023-02-11T09:57:58;20.77;;;9.07;;
9072;SDS011;4572;41.642;25.370;2023-02-11T10:01:29;13.37;;;8.47;;
9072;SDS011;4572;41.642;25.370;2023-02-11T10:06:50;15.70;;;8.80;;
9072;SDS011;4572;41.642;25.370;2023-02-11T10:22:38;24.77;;;11.73;;
9072;SDS011;4572;41.642;25.370;2023-02-11T10:25:16;16.30;;;8.87;;
9072;SDS011;4572;41.642;25.370;2023-02-11T10:27:44;13.87;;;8.17;;
9072;SDS011;4572;41.642;25.370;2023-02-11T10:30:25;23.80;;;9.83;;
9072;SDS011;4572;41.642;25.370;2023-02-11T10:35:36;18.27;;;9.73;;
9072;SDS011;4572;41.642;25.370;2023-02-11T10:38:02;14.13;;;9.40;;
9072;SDS011;4572;41.642;25.370;2023-02-11T10:40:28;10.63;;;7.93;;
9072;SDS011;4572;41.642;25.370;2023-02-11T10:42:56;19.23;;;10.70;;
9072;SDS011;4572;41.642;25.370;2023-02-11T10:45:29;22.03;;;10.73;;
9072;SDS011;4572;41.642;25.370;2023-02-11T10:48:02;15.47;;;9.20;;
9072;SDS011;4572;41.642;25.370;2023-02-11T10:50:31;14.77;;;9.50;;
9072;SDS011;4572;41.642;25.370;2023-02-11T10:55:52;12.83;;;6.97;;
9072;SDS011;4572;41.642;25.370;2023-02-11T10:58:22;14.10;;;7.37;;
9072;SDS011;4572;41.642;25.370;2023-02-11T11:00:51;13.77;;;7.50;;
9072;SDS011;4572;41.642;25.370;2023-02-11T11:03:22;19.83;;;8.90;;
9072;SDS011;4572;41.642;25.370;2023-02-11T11:05:50;13.27;;;8.00;;
9072;SDS011;4572;41.642;25.370;2023-02-11T11:08:20;13.27;;;8.10;;
9072;SDS011;4572;41.642;25.370;2023-02-11T11:10:47;13.80;;;8.57;;
9072;SDS011;4572;41.642;25.370;2023-02-11T11:13:38;17.97;;;9.70;;
9072;SDS011;4572;41.642;25.370;2023-02-11T11:16:52;18.17;;;9.20;;
9072;SDS011;4572;41.642;25.370;2023-02-11T11:19:21;16.70;;;7.57;;
9072;SDS011;4572;41.642;25.370;2023-02-11T11:21:54;14.43;;;8.57;;
9072;SDS011;4572;41.642;25.370;2023-02-11T11:24:21;23.60;;;11.30;;
9072;SDS011;4572;41.642;25.370;2023-02-11T11:26:54;17.67;;;8.17;;
9072;SDS011;4572;41.642;25.370;2023-02-11T11:29:22;12.67;;;7.33;;
9072;SDS011;4572;41.642;25.370;2023-02-11T11:31:59;15.33;;;7.93;;
9072;SDS011;4572;41.642;25.370;2023-02-11T11:34:29;15.70;;;6.77;;
9072;SDS011;4572;41.642;25.370;2023-02-11T11:36:57;15.50;;;8.27;;
9072;SDS011;4572;41.642;25.370;2023-02-11T11:39:25;12.33;;;7.63;;
9072;SDS011;4572;41.642;25.370;2023-02-11T11:41:53;16.07;;;8.30;;
9072;SDS011;4572;41.642;25.370;2023-02-11T11:46:46;13.13;;;7.53;;
9072;SDS011;4572;41.642;25.370;2023-02-11T11:49:34;13.50;;;7.83;;
9072;SDS011;4572;41.642;25.370;2023-02-11T11:54:54;14.70;;;6.80;;
9072;SDS011;4572;41.642;25.370;2023-02-11T11:57:27;14.50;;;8.30;;
9072;SDS011;4572;41.642;25.370;2023-02-11T11:59:54;14.33;;;8.33;;
9072;SDS011;4572;41.642;25.370;2023-02-11T12:08:03;13.37;;;6.77;;
9072;SDS011;4572;41.642;25.370;2023-02-11T12:27:10;10.83;;;7.57;;
9072;SDS011;4572;41.642;25.370;2023-02-11T12:29:55;12.33;;;7.50;;
9072;SDS011;4572;41.642;25.370;2023-02-11T12:41:02;10.67;;;6.30;;
9072;SDS011;4572;41.642;25.370;2023-02-11T12:43:38;14.20;;;6.70;;
9072;SDS011;4572;41.642;25.370;2023-02-11T13:02:19;9.83;;;6.67;;
9072;SDS011;4572;41.642;25.370;2023-02-11T13:04:56;8.73;;;6.10;;
9072;SDS011;4572;41.642;25.370;2023-02-11T13:07:35;19.37;;;9.80;;
9072;SDS011;4572;41.642;25.370;2023-02-11T13:10:15;10.37;;;6.87;;
9072;SDS011;4572;41.642;25.370;2023-02-11T13:12:59;10.50;;;6.60;;
9072;SDS011;4572;41.642;25.370;2023-02-11T13:15:44;11.47;;;6.13;;
9072;SDS011;4572;41.642;25.370;2023-02-11T13:18:16;13.07;;;6.20;;
9072;SDS011;4572;41.642;25.370;2023-02-11T13:20:55;10.23;;;6.40;;
9072;SDS011;4572;41.642;25.370;2023-02-11T13:23:45;13.03;;;6.97;;
9072;SDS011;4572;41.642;25.370;2023-02-11T13:26:20;9.20;;;6.10;;
9072;SDS011;4572;41.642;25.370;2023-02-11T13:31:36;10.53;;;6.30;;
9072;SDS011;4572;41.642;25.370;2023-02-11T13:34:01;12.23;;;6.77;;
9072;SDS011;4572;41.642;25.370;2023-02-11T13:36:28;10.97;;;6.53;;
9072;SDS011;4572;41.642;25.370;2023-02-11T13:38:58;17.17;;;7.17;;
9072;SDS011;4572;41.642;25.370;2023-02-11T13:41:33;10.67;;;6.50;;
9072;SDS011;4572;41.642;25.370;2023-02-11T13:46:47;10.13;;;6.40;;
9072;SDS011;4572;41.642;25.370;2023-02-11T13:49:21;12.00;;;6.87;;
9072;SDS011;4572;41.642;25.370;2023-02-11T13:51:52;14.10;;;6.10;;
9072;SDS011;4572;41.642;25.370;2023-02-11T13:54:37;16.87;;;7.47;;
9072;SDS011;4572;41.642;25.370;2023-02-11T13:59:45;14.30;;;7.23;;
9072;SDS011;4572;41.642;25.370;2023-02-11T14:10:52;9.97;;;6.53;;
9072;SDS011;4572;41.642;25.370;2023-02-11T14:13:25;9.13;;;5.80;;
9072;SDS011;4572;41.642;25.370;2023-02-11T14:16:02;9.53;;;5.63;;
9072;SDS011;4572;41.642;25.370;2023-02-11T14:21:14;11.17;;;5.93;;
9072;SDS011;4572;41.642;25.370;2023-02-11T14:23:43;11.43;;;6.87;;
9072;SDS011;4572;41.642;25.370;2023-02-11T14:28:45;9.70;;;6.20;;
9072;SDS011;4572;41.642;25.370;2023-02-11T14:31:13;14.27;;;6.53;;
9072;SDS011;4572;41.642;25.370;2023-02-11T14:33:46;11.63;;;6.17;;
9072;SDS011;4572;41.642;25.370;2023-02-11T14:39:15;12.23;;;6.67;;
9072;SDS011;4572;41.642;25.370;2023-02-11T14:41:46;10.73;;;6.27;;
9072;SDS011;4572;41.642;25.370;2023-02-11T14:46:48;21.40;;;6.87;;
9072;SDS011;4572;41.642;25.370;2023-02-11T14:49:30;9.93;;;6.17;;
9072;SDS011;4572;41.642;25.370;2023-02-11T14:51:59;18.93;;;6.87;;
9072;SDS011;4572;41.642;25.370;2023-02-11T14:54:47;20.63;;;7.00;;
9072;SDS011;4572;41.642;25.370;2023-02-11T14:57:14;14.20;;;7.67;;
9072;SDS011;4572;41.642;25.370;2023-02-11T15:02:33;18.77;;;7.20;;
9072;SDS011;4572;41.642;25.370;2023-02-11T15:05:15;11.77;;;6.67;;
9072;SDS011;4572;41.642;25.370;2023-02-11T15:07:44;25.80;;;7.27;;
9072;SDS011;4572;41.642;25.370;2023-02-11T15:10:16;14.97;;;6.27;;
9072;SDS011;4572;41.642;25.370;2023-02-11T15:12:44;14.53;;;7.27;;
9072;SDS011;4572;41.642;25.370;2023-02-11T15:15:12;16.90;;;8.73;;
9072;SDS011;4572;41.642;25.370;2023-02-11T15:17:38;21.43;;;10.57;;
9072;SDS011;4572;41.642;25.370;2023-02-11T15:20:04;23.60;;;10.43;;
9072;SDS011;4572;41.642;25.370;2023-02-11T15:22:31;32.87;;;18.40;;
9072;SDS011;4572;41.642;25.370;2023-02-11T15:27:36;25.70;;;12.50;;
9072;SDS011;4572;41.642;25.370;2023-02-11T15:30:09;26.97;;;12.97;;
9072;SDS011;4572;41.642;25.370;2023-02-11T15:32:48;32.73;;;16.37;;
9072;SDS011;4572;41.642;25.370;2023-02-11T15:35:15;34.67;;;17.20;;
9072;SDS011;4572;41.642;25.370;2023-02-11T15:37:42;33.87;;;18.40;;
9072;SDS011;4572;41.642;25.370;2023-02-11T15:40:14;25.47;;;14.60;;
9072;SDS011;4572;41.642;25.370;2023-02-11T15:48:18;26.53;;;13.33;;
9072;SDS011;4572;41.642;25.370;2023-02-11T15:50:51;32.53;;;13.43;;
9072;SDS011;4572;41.642;25.370;2023-02-11T15:55:46;27.63;;;14.93;;
9072;SDS011;4572;41.642;25.370;2023-02-11T15:58:11;35.20;;;13.70;;
9072;SDS011;4572;41.642;25.370;2023-02-11T16:00:44;25.87;;;13.00;;
9072;SDS011;4572;41.642;25.370;2023-02-11T16:03:18;38.53;;;18.73;;
9072;SDS011;4572;41.642;25.370;2023-02-11T16:05:45;37.33;;;20.93;;
9072;SDS011;4572;41.642;25.370;2023-02-11T16:08:16;30.43;;;15.83;;
9072;SDS011;4572;41.642;25.370;2023-02-11T16:10:55;21.20;;;12.40;;
9072;SDS011;4572;41.642;25.370;2023-02-11T16:13:32;20.80;;;11.90;;
9072;SDS011;4572;41.642;25.370;2023-02-11T16:16:22;20.17;;;11.60;;
9072;SDS011;4572;41.642;25.370;2023-02-11T16:18:50;15.57;;;9.23;;
9072;SDS011;4572;41.642;25.370;2023-02-11T16:21:30;18.70;;;9.83;;
9072;SDS011;4572;41.642;25.370;2023-02-11T16:24:03;22.53;;;11.73;;
9072;SDS011;4572;41.642;25.370;2023-02-11T16:26:38;29.47;;;15.30;;
9072;SDS011;4572;41.642;25.370;2023-02-11T16:31:38;36.47;;;16.93;;
9072;SDS011;4572;41.642;25.370;2023-02-11T16:34:10;69.93;;;31.67;;
9072;SDS011;4572;41.642;25.370;2023-02-11T16:36:37;53.10;;;23.97;;
9072;SDS011;4572;41.642;25.370;2023-02-11T16:39:03;58.57;;;27.23;;
9072;SDS011;4572;41.642;25.370;2023-02-11T16:41:28;89.93;;;31.23;;
9072;SDS011;4572;41.642;25.370;2023-02-11T16:43:55;33.43;;;16.47;;
9072;SDS011;4572;41.642;25.370;2023-02-11T16:46:21;36.77;;;17.07;;
9072;SDS011;4572;41.642;25.370;2023-02-11T16:48:47;54.07;;;25.13;;
9072;SDS011;4572;41.642;25.370;2023-02-11T16:51:12;52.50;;;26.30;;
9072;SDS011;4572;41.642;25.370;2023-02-11T16:53:38;45.17;;;24.50;;
9072;SDS011;4572;41.642;25.370;2023-02-11T16:56:04;48.37;;;23.23;;
9072;SDS011;4572;41.642;25.370;2023-02-11T16:58:29;28.00;;;15.40;;
9072;SDS011;4572;41.642;25.370;2023-02-11T17:00:55;30.27;;;16.87;;
9072;SDS011;4572;41.642;25.370;2023-02-11T17:03:22;36.83;;;20.13;;
9072;SDS011;4572;41.642;25.370;2023-02-11T17:05:48;30.53;;;17.97;;
9072;SDS011;4572;41.642;25.370;2023-02-11T17:08:14;36.33;;;18.60;;
9072;SDS011;4572;41.642;25.370;2023-02-11T17:10:39;43.10;;;20.70;;
9072;SDS011;4572;41.642;25.370;2023-02-11T17:13:05;51.63;;;24.80;;
9072;SDS011;4572;41.642;25.370;2023-02-11T17:15:31;48.73;;;24.30;;
9072;SDS011;4572;41.642;25.370;2023-02-11T17:17:57;41.57;;;19.23;;
9072;SDS011;4572;41.642;25.370;2023-02-11T17:20:23;40.20;;;20.53;;
9072;SDS011;4572;41.642;25.370;2023-02-11T17:22:49;31.83;;;15.13;;
9072;SDS011;4572;41.642;25.370;2023-02-11T17:25:14;26.80;;;14.63;;
9072;SDS011;4572;41.642;25.370;2023-02-11T17:27:40;30.17;;;16.73;;
9072;SDS011;4572;41.642;25.370;2023-02-11T17:30:06;31.73;;;17.03;;
9072;SDS011;4572;41.642;25.370;2023-02-11T17:32:32;33.20;;;17.93;;
9072;SDS011;4572;41.642;25.370;2023-02-11T17:34:57;39.93;;;21.97;;